Time;durP1;ratioP1;P1;durP2;ratioP2;P2;SDS_P1;SDS_P2;PMS_P1;PMS_P2;Temp;Humidity;BMP_temperature;BMP_pressure;BME280_temperature;BME280_humidity;BME280_pressure;Samples;Min_cycle;Max_cycle;Signal;HPM_P1;HPM_P2
2022/07/04 00:00:55;;;;;;;;;;;12.30;99.90;;;;;;5110632;28;19931;-58
2022/07/04 00:03:23;;;;;;;;;;;12.30;99.90;;;;;;5111877;28;19924;-58
2022/07/04 00:05:50;;;;;;;;;;;12.30;99.90;;;;;;5093230;28;19924;-55
2022/07/04 00:08:17;;;;;;;;;;;12.30;99.90;;;;;;5095444;28;19923;-57
2022/07/04 00:10:45;;;;;;;;;;;12.30;99.90;;;;;;5110201;28;19920;-57
2022/07/04 00:13:12;;;;;;;;;;;12.30;99.90;;;;;;5104729;28;19934;-55
2022/07/04 00:15:40;;;;;;;;;;;12.30;99.90;;;;;;5093101;28;19920;-56
2022/07/04 00:18:07;;;;;;;;;;;12.30;99.90;;;;;;5090796;28;19931;-57
2022/07/04 00:20:35;;;;;;;;;;;12.30;99.90;;;;;;5104849;28;19920;-58
2022/07/04 00:23:02;;;;;;;;;;;12.40;99.90;;;;;;5111368;28;19919;-58
2022/07/04 00:25:29;;;;;;;;;;;12.40;99.90;;;;;;5102985;28;19931;-58
2022/07/04 00:27:57;;;;;;;;;;;12.40;99.90;;;;;;5103450;28;19927;-57
2022/07/04 00:30:25;;;;;;;;;;;12.40;99.90;;;;;;5092811;28;19927;-57
2022/07/04 00:32:53;;;;;;;;;;;12.50;99.90;;;;;;5110815;28;19920;-58
2022/07/04 00:35:20;;;;;;;;;;;12.50;99.90;;;;;;5097095;28;19920;-58
2022/07/04 00:37:47;;;;;;;;;;;12.50;99.90;;;;;;5099968;28;19923;-58
2022/07/04 00:40:15;;;;;;;;;;;12.50;99.90;;;;;;5096655;28;19920;-57
2022/07/04 00:42:42;;;;;;;;;;;12.60;99.90;;;;;;5096013;28;20294;-57
2022/07/04 00:45:10;;;;;;;;;;;12.60;99.90;;;;;;5098530;28;19924;-58
2022/07/04 00:47:37;;;;;;;;;;;12.60;99.90;;;;;;5116028;27;19923;-59
2022/07/04 00:50:05;;;;;;;;;;;12.60;99.90;;;;;;5109431;28;20375;-58
2022/07/04 00:52:32;;;;;;;;;;;12.60;99.90;;;;;;5106058;28;19920;-58
2022/07/04 00:55:00;;;;;;;;;;;12.60;99.90;;;;;;5099727;28;19927;-57
2022/07/04 00:57:28;;;;;;;;;;;12.70;99.90;;;;;;5092158;28;19928;-57
2022/07/04 00:59:55;;;;;;;;;;;12.70;99.90;;;;;;5109329;28;19919;-58
2022/07/04 01:02:23;;;;;;;;;;;12.70;99.90;;;;;;5107833;28;19924;-56
2022/07/04 01:04:50;;;;;;;;;;;12.70;99.90;;;;;;5097735;28;19927;-54
2022/07/04 01:07:19;;;;;;;;;;;12.70;99.90;;;;;;5105915;28;19927;-55
2022/07/04 01:09:47;;;;;;;;;;;12.70;99.90;;;;;;5095464;28;19927;-55
2022/07/04 01:12:27;;;;;;;;;;;12.70;99.90;;;;;;5106228;28;19919;-54
2022/07/04 01:14:54;;;;;;;;;;;12.70;99.90;;;;;;5098956;28;19920;-54
2022/07/04 01:17:22;;;;;;;;;;;12.70;99.90;;;;;;5089829;28;19927;-55
2022/07/04 01:19:49;;;;;;;;;;;12.80;99.90;;;;;;5096119;28;19923;-54
2022/07/04 01:22:17;;;;;;;;;;;12.80;99.90;;;;;;5110352;28;19920;-54
2022/07/04 01:24:44;;;;;;;;;;;12.80;99.90;;;;;;5103529;28;19930;-58
2022/07/04 01:27:12;;;;;;;;;;;12.80;99.90;;;;;;5104047;28;19924;-57
2022/07/04 01:29:39;;;;;;;;;;;12.80;99.90;;;;;;5090235;28;19924;-57
2022/07/04 01:32:07;;;;;;;;;;;12.80;99.90;;;;;;5097814;28;19920;-58
2022/07/04 01:34:35;;;;;;;;;;;12.90;99.90;;;;;;5058453;28;19920;-57
2022/07/04 01:37:10;;;;;;;;;;;12.90;99.90;;;;;;5098398;28;19920;-57
2022/07/04 01:39:38;;;;;;;;;;;12.90;99.90;;;;;;5097775;28;19920;-56
2022/07/04 01:42:05;;;;;;;;;;;12.90;99.90;;;;;;5110608;28;20378;-57
2022/07/04 01:44:33;;;;;;;;;;;12.90;99.90;;;;;;5110983;28;20370;-56
2022/07/04 01:47:01;;;;;;;;;;;12.90;99.90;;;;;;5111815;28;19920;-57
2022/07/04 01:49:28;;;;;;;;;;;12.90;99.90;;;;;;5113005;28;19919;-57
2022/07/04 01:51:55;;;;;;;;;;;12.90;99.90;;;;;;5111622;28;20374;-58
2022/07/04 01:54:24;;;;;;;;;;;12.90;99.90;;;;;;5113041;28;20255;-58
2022/07/04 01:56:52;;;;;;;;;;;12.80;99.90;;;;;;5110510;28;20371;-56
2022/07/04 02:01:29;;;;;;;;;;;12.80;99.90;;;;;;5093477;28;20337;-58
2022/07/04 02:02:07;;;;;;;;;;;12.70;99.90;;;;;;5111232;28;20373;-55
2022/07/04 02:04:37;;;;;;;;;;;12.60;99.90;;;;;;5110978;28;19951;-57
2022/07/04 02:07:04;;;;;;;;;;;12.50;99.90;;;;;;5110859;28;19989;-57
2022/07/04 02:09:32;;;;;;;;;;;12.40;99.90;;;;;;5112217;28;19927;-56
2022/07/04 02:14:45;;;;;;;;;;;12.30;99.90;;;;;;5109749;28;19926;-58
2022/07/04 02:17:13;;;;;;;;;;;12.20;99.90;;;;;;5112397;28;20299;-56
2022/07/04 02:19:40;;;;;;;;;;;12.20;99.90;;;;;;5111401;28;19924;-57
2022/07/04 02:22:07;;;;;;;;;;;12.20;99.90;;;;;;5111517;28;19919;-57
2022/07/04 02:24:35;;;;;;;;;;;12.20;99.90;;;;;;5109704;28;20302;-56
2022/07/04 02:27:02;;;;;;;;;;;12.20;99.90;;;;;;5112291;28;19920;-58
2022/07/04 02:29:30;;;;;;;;;;;12.20;99.90;;;;;;5112314;28;19930;-55
2022/07/04 02:31:57;;;;;;;;;;;12.10;99.90;;;;;;5109318;28;20366;-58
2022/07/04 02:34:25;;;;;;;;;;;12.10;99.90;;;;;;5110309;28;19919;-58
2022/07/04 02:36:52;;;;;;;;;;;12.10;99.90;;;;;;5119026;28;19920;-58
2022/07/04 02:39:20;;;;;;;;;;;12.00;99.90;;;;;;5118475;28;19939;-57
2022/07/04 02:41:47;;;;;;;;;;;12.00;99.90;;;;;;5117624;28;19927;-58
2022/07/04 02:44:21;;;;;;;;;;;12.00;99.90;;;;;;5116762;27;19920;-57
2022/07/04 02:46:48;;;;;;;;;;;12.00;99.90;;;;;;5118549;28;19919;-56
2022/07/04 02:49:15;;;;;;;;;;;12.00;99.90;;;;;;5117682;28;19919;-60
2022/07/04 02:51:43;;;;;;;;;;;12.10;99.90;;;;;;5118878;28;19920;-55
2022/07/04 02:54:10;;;;;;;;;;;12.10;99.90;;;;;;5117310;28;19931;-54
2022/07/04 02:56:38;;;;;;;;;;;12.10;99.90;;;;;;5118380;28;19919;-58
2022/07/04 02:59:05;;;;;;;;;;;12.20;99.90;;;;;;5117695;28;19920;-57
2022/07/04 03:01:32;;;;;;;;;;;12.20;99.90;;;;;;5119062;28;20290;-58
2022/07/04 03:04:00;;;;;;;;;;;12.20;99.90;;;;;;5119035;28;19930;-58
2022/07/04 03:06:27;;;;;;;;;;;12.20;99.90;;;;;;5118959;28;19923;-58
2022/07/04 03:08:55;;;;;;;;;;;12.30;99.90;;;;;;5118965;28;19920;-57
2022/07/04 03:11:22;;;;;;;;;;;12.30;99.90;;;;;;5118105;27;19927;-57
2022/07/04 03:13:49;;;;;;;;;;;12.30;99.90;;;;;;5118874;28;19942;-57
2022/07/04 03:16:17;;;;;;;;;;;12.30;99.90;;;;;;5118929;28;19919;-59
2022/07/04 03:18:44;;;;;;;;;;;12.40;99.90;;;;;;5119003;28;19919;-58
2022/07/04 03:21:13;;;;;;;;;;;12.40;99.90;;;;;;5119069;27;19965;-57
2022/07/04 03:23:40;;;;;;;;;;;12.40;99.90;;;;;;5118696;28;19923;-57
2022/07/04 03:26:09;;;;;;;;;;;12.40;99.90;;;;;;5117579;28;19926;-54
2022/07/04 03:28:36;;;;;;;;;;;12.50;99.90;;;;;;5118843;28;19930;-54
2022/07/04 03:31:04;;;;;;;;;;;12.50;99.90;;;;;;5118698;28;19927;-55
2022/07/04 03:33:31;;;;;;;;;;;12.50;99.90;;;;;;5118844;28;19926;-55
2022/07/04 03:35:58;;;;;;;;;;;12.50;99.90;;;;;;5118744;28;20286;-55
2022/07/04 03:38:26;;;;;;;;;;;12.60;99.90;;;;;;5118684;28;19927;-54
2022/07/04 03:40:53;;;;;;;;;;;12.60;99.90;;;;;;5117999;28;19920;-55
2022/07/04 03:43:21;;;;;;;;;;;12.60;99.90;;;;;;5117364;28;19923;-55
2022/07/04 03:45:48;;;;;;;;;;;12.70;99.90;;;;;;5118588;28;20370;-54
2022/07/04 03:48:15;;;;;;;;;;;12.70;99.90;;;;;;5114134;28;19927;-55
2022/07/04 03:50:43;;;;;;;;;;;12.70;99.90;;;;;;5115469;28;19920;-55
2022/07/04 03:53:10;;;;;;;;;;;12.80;99.90;;;;;;5115507;28;20290;-54
2022/07/04 03:55:38;;;;;;;;;;;12.80;99.90;;;;;;5114788;28;19927;-58
2022/07/04 03:58:06;;;;;;;;;;;12.80;99.90;;;;;;5115296;28;19919;-57
2022/07/04 04:00:33;;;;;;;;;;;12.80;99.90;;;;;;5114987;28;19919;-57
2022/07/04 04:03:01;;;;;;;;;;;12.80;99.90;;;;;;5114429;28;19931;-57
2022/07/04 04:05:30;;;;;;;;;;;12.80;99.90;;;;;;5114325;28;19926;-58
2022/07/04 04:07:59;;;;;;;;;;;12.90;99.90;;;;;;5115380;28;20398;-57
2022/07/04 04:10:28;;;;;;;;;;;12.90;99.90;;;;;;5114787;28;19919;-57
2022/07/04 04:12:56;;;;;;;;;;;12.90;99.90;;;;;;5115008;28;20299;-58
2022/07/04 04:15:24;;;;;;;;;;;12.90;99.90;;;;;;5114931;28;19920;-58
2022/07/04 04:17:51;;;;;;;;;;;12.90;99.90;;;;;;5113453;28;19931;-59
2022/07/04 04:20:18;;;;;;;;;;;15.20;99.90;;;;;;5114296;28;19934;-58
2022/07/04 04:22:46;;;;;;;;;;;12.90;99.90;;;;;;5114583;28;19919;-57
2022/07/04 04:25:13;;;;;;;;;;;12.90;99.90;;;;;;5114758;28;20382;-59
2022/07/04 04:27:40;;;;;;;;;;;12.90;99.90;;;;;;5114797;28;19920;-58
2022/07/04 04:30:08;;;;;;;;;;;12.90;99.90;;;;;;5114584;28;20294;-58
2022/07/04 04:32:35;;;;;;;;;;;12.90;99.90;;;;;;5114620;28;19926;-57
2022/07/04 04:35:03;;;;;;;;;;;12.90;99.90;;;;;;5113764;28;19920;-56
2022/07/04 04:37:30;;;;;;;;;;;12.90;99.90;;;;;;5114517;28;19927;-57
2022/07/04 04:39:58;;;;;;;;;;;12.90;99.90;;;;;;5114538;28;19923;-57
2022/07/04 04:42:25;;;;;;;;;;;13.00;99.90;;;;;;5114318;28;19919;-58
2022/07/04 04:44:52;;;;;;;;;;;12.90;99.90;;;;;;5114195;28;19919;-57
2022/07/04 04:47:20;;;;;;;;;;;13.00;99.90;;;;;;5108035;28;19933;-56
2022/07/04 04:49:47;;;;;;;;;;;13.00;99.90;;;;;;5098162;28;19935;-58
2022/07/04 04:52:14;;;;;;;;;;;13.00;99.90;;;;;;5110909;28;19927;-58
2022/07/04 04:54:42;;;;;;;;;;;13.00;99.90;;;;;;5110662;28;19919;-58
2022/07/04 04:57:10;;;;;;;;;;;13.00;99.90;;;;;;5109401;28;19919;-58
2022/07/04 04:59:37;;;;;;;;;;;13.00;99.90;;;;;;5089759;28;20494;-57
2022/07/04 05:02:05;;;;;;;;;;;13.00;99.90;;;;;;5090046;28;20101;-54
2022/07/04 05:04:32;;;;;;;;;;;13.00;99.90;;;;;;5094677;28;19926;-56
2022/07/04 05:07:00;;;;;;;;;;;13.00;99.90;;;;;;5107323;28;19927;-54
2022/07/04 05:09:27;;;;;;;;;;;13.10;99.90;;;;;;5110407;28;19919;-55
2022/07/04 05:11:54;;;;;;;;;;;13.10;99.90;;;;;;5096652;28;19920;-57
2022/07/04 05:14:22;;;;;;;;;;;13.10;99.90;;;;;;5089651;28;19931;-55
2022/07/04 05:16:49;;;;;;;;;;;13.10;99.90;;;;;;5090936;28;19920;-57
2022/07/04 05:19:17;;;;;;;;;;;13.10;99.90;;;;;;5090161;28;19920;-57
2022/07/04 05:21:44;;;;;;;;;;;13.20;99.90;;;;;;5106596;28;20165;-58
2022/07/04 05:24:11;;;;;;;;;;;13.10;99.90;;;;;;5089815;28;20338;-55
2022/07/04 05:26:39;;;;;;;;;;;13.20;99.90;;;;;;5087207;28;19920;-56
2022/07/04 05:29:06;;;;;;;;;;;13.20;99.90;;;;;;5089610;28;19924;-56
2022/07/04 05:31:34;;;;;;;;;;;13.20;99.90;;;;;;5088204;28;20083;-58
2022/07/04 05:34:01;;;;;;;;;;;13.20;99.90;;;;;;5086774;28;19923;-55
2022/07/04 05:36:29;;;;;;;;;;;13.20;99.90;;;;;;5107473;28;19919;-57
2022/07/04 05:38:57;;;;;;;;;;;13.20;99.90;;;;;;5108258;28;19923;-58
2022/07/04 05:41:25;;;;;;;;;;;13.30;99.90;;;;;;5106549;28;20393;-58
2022/07/04 05:43:53;;;;;;;;;;;13.30;99.90;;;;;;5106529;28;19930;-58
2022/07/04 05:46:25;;;;;;;;;;;13.30;99.90;;;;;;5107409;28;19942;-58
2022/07/04 05:48:53;;;;;;;;;;;13.30;99.90;;;;;;5098372;28;19920;-61
2022/07/04 05:51:20;;;;;;;;;;;13.30;99.90;;;;;;5089599;28;19939;-58
2022/07/04 05:53:48;;;;;;;;;;;13.40;99.90;;;;;;5101904;28;19920;-55
2022/07/04 05:56:15;;;;;;;;;;;13.40;99.90;;;;;;5109171;28;19956;-58
2022/07/04 05:58:43;;;;;;;;;;;13.50;99.90;;;;;;5095175;28;19920;-56
2022/07/04 06:01:10;;;;;;;;;;;13.50;99.90;;;;;;5087848;28;19919;-55
2022/07/04 06:03:38;;;;;;;;;;;13.50;99.90;;;;;;5085990;28;19927;-57
2022/07/04 06:06:05;;;;;;;;;;;13.50;99.90;;;;;;5101783;28;19931;-56
2022/07/04 06:08:33;;;;;;;;;;;13.50;99.90;;;;;;5123381;27;19952;-55
2022/07/04 06:11:00;;;;;;;;;;;13.60;99.90;;;;;;5106840;28;19920;-57
2022/07/04 06:13:28;;;;;;;;;;;13.60;99.90;;;;;;5098131;28;19927;-57
2022/07/04 06:15:56;;;;;;;;;;;13.70;99.90;;;;;;5089324;28;19923;-56
2022/07/04 06:18:24;;;;;;;;;;;13.70;99.90;;;;;;5098132;28;20318;-55
2022/07/04 06:20:51;;;;;;;;;;;13.80;99.90;;;;;;5089205;28;19920;-56
2022/07/04 06:23:18;;;;;;;;;;;13.80;99.90;;;;;;5088687;28;19920;-55
2022/07/04 06:25:46;;;;;;;;;;;13.90;99.90;;;;;;5087807;28;19920;-57
2022/07/04 06:28:13;;;;;;;;;;;13.90;99.90;;;;;;5091695;28;20209;-59
2022/07/04 06:31:01;;;;;;;;;;;13.90;99.90;;;;;;5107968;28;19920;-58
2022/07/04 06:33:28;;;;;;;;;;;13.90;99.90;;;;;;5097697;28;20275;-56
2022/07/04 06:35:56;;;;;;;;;;;14.00;99.90;;;;;;5088974;28;19920;-58
2022/07/04 06:38:25;;;;;;;;;;;14.00;99.90;;;;;;5088449;28;19931;-58
2022/07/04 06:40:53;;;;;;;;;;;14.10;99.90;;;;;;5088852;28;20387;-58
2022/07/04 06:43:21;;;;;;;;;;;14.10;99.90;;;;;;5087336;28;19927;-56
2022/07/04 06:45:49;;;;;;;;;;;14.10;99.90;;;;;;5100077;28;19931;-57
2022/07/04 06:48:16;;;;;;;;;;;14.10;99.90;;;;;;5099203;28;19920;-59
2022/07/04 06:50:44;;;;;;;;;;;14.10;99.90;;;;;;5088076;28;20364;-58
2022/07/04 06:53:12;;;;;;;;;;;14.00;99.90;;;;;;5088690;28;19927;-59
2022/07/04 06:55:40;;;;;;;;;;;14.00;99.90;;;;;;5088448;28;19928;-58
2022/07/04 06:58:08;;;;;;;;;;;14.00;99.90;;;;;;5097551;28;20112;-58
2022/07/04 07:00:35;;;;;;;;;;;14.00;99.90;;;;;;5088404;28;20295;-57
2022/07/04 07:03:03;;;;;;;;;;;14.00;99.90;;;;;;5085181;28;19927;-55
2022/07/04 07:05:31;;;;;;;;;;;14.00;99.90;;;;;;5103813;28;19919;-58
2022/07/04 07:08:18;;;;;;;;;;;13.90;99.90;;;;;;5096822;28;20287;-58
2022/07/04 07:10:46;;;;;;;;;;;13.90;99.90;;;;;;5085050;28;19923;-58
2022/07/04 07:13:14;;;;;;;;;;;13.90;99.90;;;;;;5083631;28;19931;-59
2022/07/04 07:15:41;;;;;;;;;;;14.00;99.90;;;;;;5088687;28;19923;-58
2022/07/04 07:18:08;;;;;;;;;;;14.00;99.90;;;;;;5095123;28;20387;-57
2022/07/04 07:20:36;;;;;;;;;;;14.10;99.90;;;;;;5085399;28;20362;-56
2022/07/04 07:23:04;;;;;;;;;;;14.10;99.90;;;;;;5088911;28;19931;-58
2022/07/04 07:25:31;;;;;;;;;;;14.20;99.90;;;;;;5087149;28;19920;-58
2022/07/04 07:27:58;;;;;;;;;;;14.20;99.90;;;;;;5088833;28;20375;-58
2022/07/04 07:30:26;;;;;;;;;;;14.30;99.90;;;;;;5107616;27;19923;-58
2022/07/04 07:32:53;;;;;;;;;;;14.30;99.90;;;;;;5104481;28;19924;-58
2022/07/04 07:35:21;;;;;;;;;;;14.30;99.90;;;;;;5088481;28;20279;-58
2022/07/04 07:37:49;;;;;;;;;;;14.40;99.90;;;;;;5087964;28;20225;-57
2022/07/04 07:40:17;;;;;;;;;;;14.50;99.90;;;;;;5088610;28;20401;-58
2022/07/04 07:42:44;;;;;;;;;;;14.50;99.90;;;;;;5091511;28;19935;-57
2022/07/04 07:45:11;;;;;;;;;;;14.60;99.90;;;;;;5095231;28;19919;-58
2022/07/04 07:47:39;;;;;;;;;;;14.60;99.90;;;;;;5103490;28;20383;-57
2022/07/04 07:50:06;;;;;;;;;;;14.60;99.90;;;;;;5088461;28;19935;-56
2022/07/04 07:52:34;;;;;;;;;;;14.70;99.90;;;;;;5088090;28;19927;-56
2022/07/04 07:55:01;;;;;;;;;;;14.60;99.90;;;;;;5108543;28;19919;-58
2022/07/04 07:57:30;;;;;;;;;;;14.70;99.90;;;;;;5104834;28;19931;-58
2022/07/04 07:59:57;;;;;;;;;;;14.70;99.90;;;;;;5070427;28;20368;-59
2022/07/04 08:05:12;;;;;;;;;;;14.80;99.90;;;;;;5090194;28;19932;-57
2022/07/04 08:07:39;;;;;;;;;;;14.80;99.90;;;;;;5096911;28;20974;-59
2022/07/04 08:10:07;;;;;;;;;;;14.70;99.90;;;;;;5111665;28;20282;-58
2022/07/04 08:12:35;;;;;;;;;;;14.70;99.90;;;;;;5108105;28;19919;-58
2022/07/04 08:15:03;;;;;;;;;;;14.70;99.90;;;;;;5091032;28;19920;-58
2022/07/04 08:17:34;;;;;;;;;;;14.70;99.90;;;;;;5090653;28;20383;-58
2022/07/04 08:20:03;;;;;;;;;;;14.70;99.90;;;;;;5090980;28;19920;-58
2022/07/04 08:22:30;;;;;;;;;;;14.70;99.90;;;;;;5093526;28;20378;-58
2022/07/04 08:24:57;;;;;;;;;;;14.70;99.90;;;;;;5089675;28;19931;-57
2022/07/04 08:27:25;;;;;;;;;;;14.80;99.90;;;;;;5089729;28;19920;-58
2022/07/04 08:29:59;;;;;;;;;;;14.90;99.90;;;;;;5090884;28;19920;-57
2022/07/04 08:32:27;;;;;;;;;;;15.00;99.90;;;;;;5101592;28;20367;-57
2022/07/04 08:34:57;;;;;;;;;;;15.20;99.90;;;;;;5090393;28;19934;-57
2022/07/04 08:37:24;;;;;;;;;;;15.40;99.90;;;;;;5090751;28;19932;-57
2022/07/04 08:39:52;;;;;;;;;;;15.60;99.90;;;;;;5091022;28;19920;-56
2022/07/04 08:42:20;;;;;;;;;;;15.80;99.90;;;;;;5089746;28;19920;-57
2022/07/04 08:44:49;;;;;;;;;;;16.00;99.90;;;;;;5089669;28;19927;-56
2022/07/04 08:47:21;;;;;;;;;;;16.20;99.90;;;;;;5090395;28;20315;-57
2022/07/04 08:49:57;;;;;;;;;;;16.50;99.90;;;;;;5110854;28;19927;-58
2022/07/04 08:52:38;;;;;;;;;;;16.60;99.90;;;;;;5110948;28;20385;-58
2022/07/04 09:00:39;;;;;;;;;;;17.00;99.90;;;;;;5109817;28;19920;-56
2022/07/04 09:03:07;;;;;;;;;;;17.00;99.90;;;;;;5104924;28;19920;-58
2022/07/04 09:05:35;;;;;;;;;;;17.00;99.90;;;;;;5089183;28;19920;-59
2022/07/04 09:08:03;;;;;;;;;;;17.00;99.90;;;;;;5088762;28;19920;-60
2022/07/04 09:10:31;;;;;;;;;;;16.90;99.90;;;;;;5090169;28;19927;-59
2022/07/04 09:13:02;;;;;;;;;;;16.90;99.90;;;;;;5091413;28;19923;-59
2022/07/04 09:15:40;;;;;;;;;;;16.90;99.90;;;;;;5090185;28;19923;-58
2022/07/04 09:18:25;;;;;;;;;;;16.90;99.90;;;;;;5098021;28;19919;-57
2022/07/04 09:20:53;;;;;;;;;;;16.80;99.90;;;;;;5090321;28;19920;-59
2022/07/04 09:23:23;;;;;;;;;;;16.80;99.90;;;;;;5089769;28;19920;-59
2022/07/04 09:26:09;;;;;;;;;;;16.90;99.90;;;;;;5089775;28;19927;-59
2022/07/04 09:28:38;;;;;;;;;;;17.00;99.90;;;;;;5090020;28;20523;-57
2022/07/04 09:31:15;;;;;;;;;;;16.90;99.90;;;;;;5089789;28;19920;-56
2022/07/04 09:33:51;;;;;;;;;;;16.80;99.90;;;;;;5095478;28;19927;-56
2022/07/04 09:36:20;;;;;;;;;;;16.80;99.90;;;;;;5110040;28;19919;-57
2022/07/04 09:39:06;;;;;;;;;;;16.80;99.90;;;;;;5109754;28;19919;-58
2022/07/04 09:41:50;;;;;;;;;;;16.80;99.90;;;;;;5109249;28;19920;-58
2022/07/04 09:44:18;;;;;;;;;;;16.90;99.90;;;;;;5102167;28;19920;-59
2022/07/04 09:46:45;;;;;;;;;;;16.90;99.90;;;;;;5089397;28;20385;-59
2022/07/04 09:49:13;;;;;;;;;;;16.90;99.90;;;;;;5089254;28;19920;-59
2022/07/04 09:51:45;;;;;;;;;;;17.00;99.90;;;;;;5089453;28;19943;-58
2022/07/04 09:54:15;;;;;;;;;;;17.10;99.60;;;;;;5088788;28;19982;-60
2022/07/04 09:56:44;;;;;;;;;;;17.20;99.70;;;;;;5104892;28;19920;-59
2022/07/04 09:59:12;;;;;;;;;;;17.20;99.40;;;;;;5093273;28;19927;-59
2022/07/04 10:01:39;;;;;;;;;;;17.20;99.50;;;;;;5089465;28;19943;-59
2022/07/04 10:04:07;;;;;;;;;;;17.30;99.80;;;;;;5089100;28;19927;-58
2022/07/04 10:06:37;;;;;;;;;;;17.40;99.90;;;;;;5089245;28;19931;-59
2022/07/04 10:09:09;;;;;;;;;;;17.50;99.30;;;;;;5087636;28;19930;-59
2022/07/04 10:11:38;;;;;;;;;;;17.50;99.00;;;;;;5105952;28;20375;-60
2022/07/04 10:14:07;;;;;;;;;;;17.50;99.00;;;;;;5096026;28;19924;-58
2022/07/04 10:16:35;;;;;;;;;;;17.50;98.80;;;;;;5089005;28;20363;-59
2022/07/04 10:19:02;;;;;;;;;;;17.40;99.20;;;;;;5088645;28;19920;-58
2022/07/04 10:21:30;;;;;;;;;;;17.40;99.30;;;;;;5087976;28;19920;-60
2022/07/04 10:23:58;;;;;;;;;;;17.40;99.30;;;;;;5088630;28;20402;-60
2022/07/04 10:26:27;;;;;;;;;;;17.60;99.30;;;;;;5107145;28;19924;-59
2022/07/04 10:28:54;;;;;;;;;;;17.80;98.30;;;;;;5102166;28;20087;-57
2022/07/04 10:31:23;;;;;;;;;;;18.10;96.80;;;;;;5088868;28;19927;-59
2022/07/04 10:33:52;;;;;;;;;;;18.20;96.10;;;;;;5088566;28;19920;-58
2022/07/04 10:36:20;;;;;;;;;;;18.20;96.10;;;;;;5088426;28;20402;-58
2022/07/04 10:38:48;;;;;;;;;;;18.40;96.20;;;;;;5088284;28;19920;-57
2022/07/04 10:41:18;;;;;;;;;;;18.40;95.10;;;;;;5107045;28;20534;-58
2022/07/04 10:43:53;;;;;;;;;;;18.50;94.30;;;;;;5103275;28;19920;-58
2022/07/04 10:46:27;;;;;;;;;;;18.60;94.80;;;;;;5088697;28;19924;-58
2022/07/04 10:48:56;;;;;;;;;;;18.80;95.20;;;;;;5101564;28;19927;-57
2022/07/04 10:51:35;;;;;;;;;;;19.00;94.50;;;;;;5109067;28;19934;-58
2022/07/04 10:54:08;;;;;;;;;;;19.20;94.00;;;;;;5095495;28;20367;-56
2022/07/04 10:56:46;;;;;;;;;;;19.30;93.30;;;;;;5090219;28;20379;-56
2022/07/04 10:59:16;;;;;;;;;;;19.20;93.00;;;;;;5101661;28;19919;-59
2022/07/04 11:01:46;;;;;;;;;;;19.10;92.90;;;;;;5113277;28;19924;-56
2022/07/04 11:04:48;;;;;;;;;;;19.00;92.60;;;;;;5096203;28;19942;-55
2022/07/04 11:07:34;;;;;;;;;;;18.80;92.90;;;;;;5092587;28;19920;-55
2022/07/04 11:10:33;;;;;;;;;;;18.70;92.90;;;;;;5092446;28;20287;-56
2022/07/04 11:13:02;;;;;;;;;;;18.70;93.60;;;;;;5092066;28;19927;-56
2022/07/04 11:15:30;;;;;;;;;;;18.80;93.00;;;;;;5104747;28;20367;-56
2022/07/04 11:17:59;;;;;;;;;;;18.80;92.60;;;;;;5092203;28;20302;-56
2022/07/04 11:20:29;;;;;;;;;;;18.80;92.80;;;;;;5091047;28;19935;-56
2022/07/04 11:23:06;;;;;;;;;;;19.00;93.50;;;;;;5091997;28;19920;-56
2022/07/04 11:25:34;;;;;;;;;;;19.10;92.80;;;;;;5090992;28;20640;-56
2022/07/04 11:28:20;;;;;;;;;;;19.20;92.70;;;;;;5092143;28;20430;-56
2022/07/04 11:31:07;;;;;;;;;;;19.20;93.00;;;;;;5092663;28;19924;-56
2022/07/04 11:33:39;;;;;;;;;;;19.10;92.90;;;;;;5098005;28;19920;-59
2022/07/04 11:36:08;;;;;;;;;;;19.10;92.90;;;;;;5112509;28;19927;-58
2022/07/04 11:38:45;;;;;;;;;;;19.10;93.20;;;;;;5112548;28;20464;-59
2022/07/04 11:46:48;;;;;;;;;;;19.70;93.00;;;;;;5091234;28;20375;-59
2022/07/04 11:49:15;;;;;;;;;;;19.80;93.00;;;;;;5091634;28;19942;-59
2022/07/04 11:51:44;;;;;;;;;;;20.00;92.80;;;;;;5095000;28;19919;-59
2022/07/04 11:54:12;;;;;;;;;;;20.00;92.40;;;;;;5100033;28;19920;-58
2022/07/04 11:57:09;;;;;;;;;;;19.90;92.60;;;;;;5091729;28;19920;-58
2022/07/04 11:59:37;;;;;;;;;;;19.90;92.50;;;;;;5091927;28;19920;-57
2022/07/04 12:02:14;;;;;;;;;;;19.80;92.10;;;;;;5103078;28;19923;-58
2022/07/04 12:04:42;;;;;;;;;;;19.70;92.40;;;;;;5103229;28;19926;-58
2022/07/04 12:07:14;;;;;;;;;;;19.80;92.20;;;;;;5111270;28;20291;-56
2022/07/04 12:09:41;;;;;;;;;;;20.00;92.30;;;;;;5091320;28;19919;-57
2022/07/04 12:12:09;;;;;;;;;;;20.00;91.00;;;;;;5091400;28;19927;-56
2022/07/04 12:14:37;;;;;;;;;;;20.00;91.50;;;;;;5091777;28;19924;-56
2022/07/04 12:17:13;;;;;;;;;;;20.00;92.00;;;;;;5091470;28;19920;-57
2022/07/04 12:19:51;;;;;;;;;;;20.40;93.10;;;;;;5101230;28;19920;-57
2022/07/04 12:22:38;;;;;;;;;;;20.70;91.30;;;;;;5111534;28;19926;-59
2022/07/04 12:25:07;;;;;;;;;;;20.70;90.20;;;;;;5091919;28;19932;-58
2022/07/04 12:27:34;;;;;;;;;;;20.60;90.60;;;;;;5094047;28;19993;-59
2022/07/04 12:30:03;;;;;;;;;;;20.50;90.40;;;;;;5090050;28;19924;-59
2022/07/04 12:32:47;;;;;;;;;;;20.50;91.70;;;;;;5091235;28;19920;-59
2022/07/04 12:35:33;;;;;;;;;;;20.70;90.80;;;;;;5089485;28;19920;-59
2022/07/04 12:38:21;;;;;;;;;;;20.80;90.50;;;;;;5099756;28;19931;-57
2022/07/04 12:40:53;;;;;;;;;;;21.00;91.00;;;;;;5094684;28;20298;-58
2022/07/04 12:43:21;;;;;;;;;;;21.20;89.50;;;;;;5110707;28;19943;-59
2022/07/04 12:45:56;;;;;;;;;;;21.20;89.80;;;;;;5095538;28;19920;-57
2022/07/04 12:48:28;;;;;;;;;;;21.10;90.10;;;;;;5107331;28;19927;-57
2022/07/04 12:51:09;;;;;;;;;;;20.80;90.20;;;;;;5109972;28;19931;-57
2022/07/04 12:53:38;;;;;;;;;;;20.70;90.40;;;;;;5104284;28;19920;-59
2022/07/04 12:56:06;;;;;;;;;;;20.50;91.20;;;;;;5090834;28;19998;-57
2022/07/04 12:58:33;;;;;;;;;;;20.40;91.00;;;;;;5090396;28;20364;-59
2022/07/04 13:01:00;;;;;;;;;;;20.40;92.20;;;;;;5090698;28;19920;-57
2022/07/04 13:03:28;;;;;;;;;;;20.60;92.50;;;;;;5090171;28;20379;-58
2022/07/04 13:05:57;;;;;;;;;;;20.90;92.20;;;;;;5090543;28;19924;-57
2022/07/04 13:08:24;;;;;;;;;;;21.40;92.60;;;;;;5117719;27;19920;-58
2022/07/04 13:12:24;;;;;;;;;;;21.90;89.30;;;;;;5090207;28;19923;-58
2022/07/04 13:13:39;;;;;;;;;;;22.00;87.50;;;;;;5089981;28;20065;-59
2022/07/04 13:16:06;;;;;;;;;;;22.00;88.20;;;;;;5090564;28;19924;-59
2022/07/04 13:18:35;;;;;;;;;;;22.10;88.40;;;;;;5098111;28;19919;-56
2022/07/04 13:21:03;;;;;;;;;;;22.10;86.50;;;;;;5109084;28;19927;-58
2022/07/04 13:23:30;;;;;;;;;;;21.90;85.90;;;;;;5103545;28;19919;-59
2022/07/04 13:25:58;;;;;;;;;;;21.70;86.90;;;;;;5089873;28;19935;-58
2022/07/04 13:28:25;;;;;;;;;;;21.40;89.20;;;;;;5095902;28;20375;-58
2022/07/04 13:30:53;;;;;;;;;;;21.30;90.20;;;;;;5090276;28;19920;-58
2022/07/04 13:33:20;;;;;;;;;;;21.40;90.40;;;;;;5089655;28;19943;-58
2022/07/04 13:35:48;;;;;;;;;;;21.80;90.10;;;;;;5087291;28;19920;-58
2022/07/04 13:38:15;;;;;;;;;;;22.00;88.00;;;;;;5085875;28;19920;-57
2022/07/04 13:40:52;;;;;;;;;;;22.20;87.80;;;;;;5087648;28;19920;-58
2022/07/04 13:43:19;;;;;;;;;;;22.60;86.80;;;;;;5101735;28;20272;-59
2022/07/04 13:45:48;;;;;;;;;;;23.00;86.40;;;;;;5098097;28;20295;-59
2022/07/04 13:48:16;;;;;;;;;;;23.30;85.00;;;;;;5089641;28;19923;-59
2022/07/04 13:50:43;;;;;;;;;;;23.50;85.10;;;;;;5089576;28;20394;-59
2022/07/04 13:53:11;;;;;;;;;;;23.60;82.80;;;;;;5089404;28;20371;-57
2022/07/04 13:55:39;;;;;;;;;;;23.70;82.60;;;;;;5089484;28;19927;-56
2022/07/04 13:58:07;;;;;;;;;;;23.70;83.10;;;;;;5089317;28;20276;-56
2022/07/04 14:00:35;;;;;;;;;;;23.60;80.00;;;;;;5100153;28;19920;-57
2022/07/04 14:03:03;;;;;;;;;;;23.10;80.00;;;;;;5102211;28;19924;-56
2022/07/04 14:05:31;;;;;;;;;;;22.90;82.30;;;;;;5089456;28;19927;-58
2022/07/04 14:07:59;;;;;;;;;;;22.90;82.80;;;;;;5086460;28;19924;-58
2022/07/04 14:10:27;;;;;;;;;;;22.70;82.00;;;;;;5097264;28;19928;-59
2022/07/04 14:12:54;;;;;;;;;;;22.60;82.70;;;;;;5108607;28;19927;-58
2022/07/04 14:15:22;;;;;;;;;;;22.60;84.60;;;;;;5103794;28;19924;-59
2022/07/04 14:17:49;;;;;;;;;;;23.20;85.10;;;;;;5105092;28;19927;-58
2022/07/04 14:20:18;;;;;;;;;;;23.70;83.60;;;;;;5091288;28;19923;-58
2022/07/04 14:22:45;;;;;;;;;;;24.30;83.20;;;;;;5109549;28;19927;-58
2022/07/04 14:25:13;;;;;;;;;;;24.40;78.30;;;;;;5090531;28;19927;-58
2022/07/04 14:27:40;;;;;;;;;;;24.30;77.60;;;;;;5106810;28;19926;-59
2022/07/04 14:30:08;;;;;;;;;;;23.90;77.80;;;;;;5089404;28;19946;-59
2022/07/04 14:32:35;;;;;;;;;;;23.50;78.40;;;;;;5088558;28;19920;-58
2022/07/04 14:35:03;;;;;;;;;;;23.20;79.10;;;;;;5088740;28;19920;-57
2022/07/04 14:37:36;;;;;;;;;;;22.80;80.00;;;;;;5105651;28;20545;-58
2022/07/04 14:40:04;;;;;;;;;;;22.40;79.80;;;;;;5096558;28;19920;-58
2022/07/04 14:42:31;;;;;;;;;;;22.20;80.90;;;;;;5109110;28;20290;-58
2022/07/04 14:44:58;;;;;;;;;;;21.90;80.00;;;;;;5107463;28;19920;-58